createdAt,value
2019-04-10T00:00:47.674Z,15.75
2019-04-10T00:03:25.716Z,16.15
2019-04-10T00:05:46.171Z,16.42
2019-04-10T00:08:14.481Z,16.25
2019-04-10T00:10:43.729Z,16.45
2019-04-10T00:13:12.190Z,15.53
2019-04-10T00:15:40.367Z,15.88
2019-04-10T00:18:09.457Z,16.50
2019-04-10T00:20:37.647Z,15.93
2019-04-10T00:23:06.792Z,15.72
2019-04-10T00:25:35.345Z,16.05
2019-04-10T00:28:03.578Z,16.05
2019-04-10T00:30:31.779Z,16.00
2019-04-10T00:33:00.564Z,15.35
2019-04-10T00:35:29.735Z,15.28
2019-04-10T00:37:58.121Z,16.10
2019-04-10T00:40:26.400Z,14.63
2019-04-10T00:42:56.983Z,15.18
2019-04-10T00:45:25.106Z,15.65
2019-04-10T00:47:53.462Z,14.93
2019-04-10T00:50:22.329Z,15.20
2019-04-10T00:52:50.624Z,14.75
2019-04-10T00:55:19.666Z,15.63
2019-04-10T00:57:47.992Z,15.48
2019-04-10T01:00:16.941Z,15.35
2019-04-10T01:02:45.185Z,14.68
2019-04-10T01:05:13.479Z,14.50
2019-04-10T01:07:44.191Z,15.78
2019-04-10T01:10:12.222Z,14.33
2019-04-10T01:12:40.547Z,14.25
2019-04-10T01:15:10.026Z,15.48
2019-04-10T01:17:38.312Z,15.10
2019-04-10T01:20:07.157Z,15.15
2019-04-10T01:22:35.582Z,14.28
2019-04-10T01:25:06.083Z,16.20
2019-04-10T01:27:34.331Z,14.45
2019-04-10T01:30:02.556Z,15.00
2019-04-10T01:32:30.759Z,14.13
2019-04-10T01:35:00.147Z,14.93
2019-04-10T01:37:29.051Z,14.80
2019-04-10T01:39:57.387Z,14.35
2019-04-10T01:42:25.593Z,14.53
2019-04-10T01:44:53.817Z,13.62
2019-04-10T01:47:22.070Z,14.87
2019-04-10T01:49:50.358Z,15.15
2019-04-10T01:52:18.568Z,15.58
2019-04-10T01:54:47.140Z,15.88
2019-04-10T01:57:16.423Z,14.85
2019-04-10T01:59:45.898Z,14.78
2019-04-10T02:02:16.867Z,14.23
2019-04-10T02:04:45.251Z,13.68
2019-04-10T02:07:13.901Z,14.20
2019-04-10T02:09:42.159Z,14.73
2019-04-10T02:12:10.421Z,15.18
2019-04-10T02:14:38.669Z,13.85
2019-04-10T02:17:06.826Z,14.30
2019-04-10T02:19:35.063Z,14.45
2019-04-10T02:22:04.337Z,14.63
2019-04-10T02:24:33.389Z,14.53
2019-04-10T02:27:02.406Z,13.93
2019-04-10T02:29:31.497Z,13.78
2019-04-10T02:31:59.912Z,13.60
2019-04-10T02:34:28.417Z,13.78
2019-04-10T02:36:58.484Z,12.90
2019-04-10T02:39:34.195Z,13.62
2019-04-10T02:41:58.253Z,13.50
2019-04-10T02:44:28.406Z,13.62
2019-04-10T02:46:59.092Z,13.43
2019-04-10T02:49:28.010Z,13.45
2019-04-10T02:51:57.031Z,14.03
2019-04-10T02:54:26.926Z,13.80
2019-04-10T02:56:56.769Z,13.32
2019-04-10T02:59:25.148Z,13.68
2019-04-10T03:01:53.508Z,13.53
2019-04-10T03:04:21.664Z,13.20
2019-04-10T03:06:51.394Z,13.35
2019-04-10T03:09:40.541Z,13.95
2019-04-10T03:11:49.923Z,12.07
2019-04-10T03:14:18.958Z,13.60
2019-04-10T03:16:47.929Z,11.88
2019-04-10T03:19:17.055Z,13.90
2019-04-10T03:21:45.292Z,13.50
2019-04-10T03:24:13.894Z,12.80
2019-04-10T03:26:42.126Z,12.90
2019-04-10T03:29:10.355Z,12.78
2019-04-10T03:31:40.844Z,12.75
2019-04-10T03:34:21.799Z,11.70
2019-04-10T03:36:48.894Z,12.43
2019-04-10T03:39:17.463Z,12.35
2019-04-10T03:41:45.713Z,12.35
2019-04-10T03:44:14.540Z,12.93
2019-04-10T03:46:43.032Z,12.00
2019-04-10T03:49:11.767Z,12.50
2019-04-10T03:51:40.840Z,13.78
2019-04-10T03:54:09.183Z,12.90
2019-04-10T03:56:38.150Z,12.43
2019-04-10T03:59:06.485Z,13.35
2019-04-10T04:01:35.362Z,11.53
2019-04-10T04:04:04.880Z,12.50
2019-04-10T04:06:33.396Z,12.33
2019-04-10T04:09:08.879Z,12.70
2019-04-10T04:11:31.640Z,12.18
2019-04-10T04:13:59.874Z,11.95
2019-04-10T04:16:28.040Z,11.45
2019-04-10T04:18:56.246Z,13.22
2019-04-10T04:21:24.465Z,11.05
2019-04-10T04:23:53.259Z,12.35
2019-04-10T04:26:21.500Z,12.70
2019-04-10T04:28:49.706Z,11.48
2019-04-10T04:31:18.150Z,12.13
2019-04-10T04:33:46.924Z,12.47
2019-04-10T04:36:16.003Z,12.03
2019-04-10T04:38:45.224Z,13.10
2019-04-10T04:41:13.538Z,13.30
2019-04-10T04:43:43.398Z,11.85
2019-04-10T04:46:12.060Z,12.73
2019-04-10T04:48:41.208Z,12.90
2019-04-10T04:51:09.500Z,13.30
2019-04-10T04:53:37.705Z,12.47
2019-04-10T04:56:05.929Z,13.45
2019-04-10T04:58:34.173Z,13.58
2019-04-10T05:01:02.361Z,12.70
2019-04-10T05:03:30.577Z,13.48
2019-04-10T05:05:58.799Z,13.70
2019-04-10T05:08:28.048Z,14.07
2019-04-10T05:10:56.313Z,12.95
2019-04-10T05:13:24.513Z,12.93
2019-04-10T05:15:53.369Z,13.70
2019-04-10T05:18:22.980Z,12.98
2019-04-10T05:20:52.406Z,14.55
2019-04-10T05:23:20.828Z,13.85
2019-04-10T05:25:49.795Z,14.25
2019-04-10T05:28:18.997Z,13.08
2019-04-10T05:30:47.652Z,14.05
2019-04-10T05:33:16.249Z,12.85
2019-04-10T05:35:44.449Z,12.85
2019-04-10T05:38:13.525Z,13.08
2019-04-10T05:40:42.227Z,13.40
2019-04-10T05:43:11.471Z,13.30
2019-04-10T05:45:40.125Z,13.55
2019-04-10T05:48:08.812Z,13.78
2019-04-10T05:50:37.816Z,12.70
2019-04-10T05:53:06.147Z,13.10
2019-04-10T05:55:34.355Z,13.98
2019-04-10T05:58:02.576Z,14.60
2019-04-10T06:00:30.791Z,13.30
2019-04-10T06:02:59.019Z,13.48
2019-04-10T06:05:27.224Z,14.33
2019-04-10T06:07:55.486Z,13.83
2019-04-10T06:10:24.654Z,13.25
2019-04-10T06:12:53.105Z,13.45
2019-04-10T06:15:21.322Z,13.85
2019-04-10T06:17:49.553Z,13.58
2019-04-10T06:20:17.756Z,13.25
2019-04-10T06:22:47.227Z,12.90
2019-04-10T06:25:16.378Z,13.58
2019-04-10T06:27:45.280Z,13.75
2019-04-10T06:30:13.492Z,13.85
2019-04-10T06:32:41.716Z,14.10
2019-04-10T06:35:11.023Z,13.75
2019-04-10T06:37:40.088Z,13.32
2019-04-10T06:40:17.066Z,12.85
2019-04-10T06:42:46.109Z,13.50
2019-04-10T06:45:09.291Z,13.88
2019-04-10T06:47:38.225Z,12.98
2019-04-10T06:50:07.030Z,13.20
2019-04-10T06:52:35.259Z,13.20
2019-04-10T06:55:05.034Z,12.30
2019-04-10T06:57:45.103Z,13.78
2019-04-10T07:00:06.767Z,12.93
2019-04-10T07:02:37.131Z,13.65
2019-04-10T07:05:17.475Z,13.43
2019-04-10T07:07:51.915Z,14.05
2019-04-10T07:10:26.084Z,13.85
2019-04-10T07:12:45.787Z,13.15
2019-04-10T07:15:18.511Z,12.98
2019-04-10T07:17:44.834Z,12.23
2019-04-10T07:20:15.473Z,13.15
2019-04-10T07:22:46.539Z,12.20
2019-04-10T07:25:14.384Z,12.90
2019-04-10T07:27:44.053Z,11.60
2019-04-10T07:30:12.347Z,12.63
2019-04-10T07:32:44.256Z,11.75
2019-04-10T07:35:12.757Z,12.95
2019-04-10T07:37:40.503Z,11.40
2019-04-10T07:40:08.894Z,11.85
2019-04-10T07:42:40.276Z,12.20
2019-04-10T07:45:07.047Z,12.03
2019-04-10T07:47:35.619Z,11.68
2019-04-10T07:50:08.591Z,12.37
2019-04-10T07:52:37.169Z,12.78
2019-04-10T07:55:06.608Z,11.55
2019-04-10T07:57:34.919Z,11.75
2019-04-10T08:00:03.262Z,12.00
2019-04-10T08:02:31.737Z,12.03
2019-04-10T08:05:00.185Z,11.55
2019-04-10T08:07:32.596Z,11.60
2019-04-10T08:09:59.290Z,10.78
2019-04-10T08:12:37.618Z,11.88
2019-04-10T08:14:57.540Z,12.73
2019-04-10T08:17:26.269Z,11.68
2019-04-10T08:19:54.508Z,11.83
2019-04-10T08:22:22.786Z,12.58
2019-04-10T08:24:51.246Z,12.45
2019-04-10T08:27:19.558Z,12.23
2019-04-10T08:29:48.481Z,12.15
2019-04-10T08:32:16.754Z,11.73
2019-04-10T08:34:45.008Z,11.78
2019-04-10T08:37:14.422Z,12.23
2019-04-10T08:39:45.967Z,12.65
2019-04-10T08:42:12.777Z,11.57
2019-04-10T08:44:41.008Z,12.55
2019-04-10T08:47:09.235Z,12.58
2019-04-10T08:49:37.448Z,12.58
2019-04-10T08:52:06.172Z,13.00
2019-04-10T08:54:34.576Z,12.43
2019-04-10T08:57:03.311Z,12.23
2019-04-10T08:59:31.923Z,13.03
2019-04-10T09:02:00.199Z,13.15
2019-04-10T09:04:28.761Z,13.70
2019-04-10T09:06:57.955Z,12.10
2019-04-10T09:09:27.866Z,13.60
2019-04-10T09:11:56.264Z,12.35
2019-04-10T09:14:25.230Z,13.62
2019-04-10T09:16:55.208Z,12.33
2019-04-10T09:19:23.484Z,12.13
2019-04-10T09:21:52.875Z,12.68
2019-04-10T09:24:21.680Z,13.50
2019-04-10T09:26:50.817Z,11.85
2019-04-10T09:29:21.774Z,13.53
2019-04-10T09:31:50.241Z,14.30
2019-04-10T09:34:18.578Z,13.83
2019-04-10T09:36:46.802Z,13.08
2019-04-10T09:39:15.081Z,12.85
2019-04-10T09:41:43.923Z,14.23
2019-04-10T09:44:12.398Z,14.10
2019-04-10T09:46:40.883Z,13.88
2019-04-10T09:49:09.176Z,14.33
2019-04-10T09:51:38.296Z,13.80
2019-04-10T09:54:07.785Z,14.43
2019-04-10T09:56:36.415Z,14.78
2019-04-10T09:59:05.378Z,14.95
2019-04-10T10:01:33.863Z,14.73
2019-04-10T10:04:02.007Z,15.20
2019-04-10T10:06:34.701Z,14.83
2019-04-10T10:09:00.537Z,14.55
2019-04-10T10:11:28.755Z,14.47
2019-04-10T10:13:56.964Z,15.28
2019-04-10T10:16:25.506Z,15.15
2019-04-10T10:18:54.070Z,14.03
2019-04-10T10:21:22.405Z,15.25
2019-04-10T10:23:50.625Z,15.72
2019-04-10T10:26:19.705Z,13.83
2019-04-10T10:28:48.171Z,14.78
2019-04-10T10:31:16.320Z,13.98
2019-04-10T10:33:44.536Z,14.13
2019-04-10T10:36:13.705Z,14.25
2019-04-10T10:38:41.979Z,14.75
2019-04-10T10:41:10.185Z,13.08
2019-04-10T10:43:38.433Z,14.53
2019-04-10T10:46:07.153Z,14.13
2019-04-10T10:48:35.809Z,13.88
2019-04-10T10:51:04.623Z,13.78
2019-04-10T10:53:32.950Z,14.05
2019-04-10T10:56:02.157Z,12.43
2019-04-10T10:58:30.469Z,13.80
2019-04-10T11:00:59.761Z,13.65
2019-04-10T11:03:28.146Z,13.10
2019-04-10T11:06:57.789Z,12.28
2019-04-10T11:08:33.867Z,12.90
2019-04-10T11:11:06.261Z,13.35
2019-04-10T11:13:34.785Z,13.38
2019-04-10T11:16:07.103Z,12.28
2019-04-10T11:18:35.246Z,12.23
2019-04-10T11:21:08.045Z,11.95
2019-04-10T11:23:33.841Z,12.45
2019-04-10T11:26:02.311Z,11.45
2019-04-10T11:28:32.254Z,11.40
2019-04-10T11:31:01.402Z,12.70
2019-04-10T11:33:30.747Z,11.38
2019-04-10T11:36:00.139Z,12.73
2019-04-10T11:38:29.075Z,12.70
2019-04-10T11:43:27.889Z,12.80
2019-04-10T11:45:59.287Z,12.50
2019-04-10T11:48:29.098Z,12.63
2019-04-10T11:51:00.684Z,12.47
2019-04-10T11:53:27.362Z,12.60
2019-04-10T11:55:57.033Z,12.63
2019-04-10T11:58:28.956Z,12.30
2019-04-10T12:00:58.080Z,12.35
2019-04-10T12:03:27.002Z,12.50
2019-04-10T12:05:57.208Z,14.13
2019-04-10T12:13:26.624Z,13.10
2019-04-10T12:15:54.877Z,13.13
2019-04-10T12:18:23.079Z,14.45
2019-04-10T12:20:51.581Z,14.33
2019-04-10T12:23:20.872Z,14.18
2019-04-10T12:25:49.430Z,13.68
2019-04-10T12:28:17.966Z,15.28
2019-04-10T12:30:46.250Z,13.93
2019-04-10T12:33:14.454Z,12.93
2019-04-10T12:35:42.761Z,13.93
2019-04-10T12:38:13.249Z,12.63
2019-04-10T12:40:40.918Z,12.47
2019-04-10T12:43:09.135Z,12.65
2019-04-10T12:45:38.158Z,12.65
2019-04-10T12:48:06.390Z,12.93
2019-04-10T12:50:34.647Z,11.63
2019-04-10T12:53:03.035Z,11.50
2019-04-10T12:55:32.322Z,13.05
2019-04-10T12:58:08.419Z,13.15
2019-04-10T13:00:31.641Z,13.32
2019-04-10T13:03:00.810Z,12.37
2019-04-10T13:05:29.345Z,12.93
2019-04-10T13:07:59.165Z,12.23
2019-04-10T13:10:27.566Z,14.10
2019-04-10T13:12:55.779Z,13.65
2019-04-10T13:15:23.995Z,13.55
2019-04-10T13:17:53.148Z,13.80
2019-04-10T13:20:21.904Z,13.93
2019-04-10T13:22:50.671Z,13.78
2019-04-10T13:25:19.007Z,13.75
2019-04-10T13:27:47.371Z,13.65
2019-04-10T13:30:16.556Z,13.00
2019-04-10T13:32:44.964Z,13.32
2019-04-10T13:35:14.407Z,11.68
2019-04-10T13:37:43.482Z,13.13
2019-04-10T13:40:13.087Z,13.22
2019-04-10T13:42:41.409Z,13.18
2019-04-10T13:45:09.621Z,12.78
2019-04-10T13:47:38.681Z,14.20
2019-04-10T13:50:08.496Z,13.40
2019-04-10T13:52:38.708Z,13.13
2019-04-10T13:55:10.227Z,13.93
2019-04-10T13:57:39.284Z,12.00
2019-04-10T14:00:09.377Z,14.03
2019-04-10T14:02:37.998Z,13.20
2019-04-10T14:05:11.609Z,13.22
2019-04-10T14:07:40.229Z,13.10
2019-04-10T14:10:08.588Z,13.45
2019-04-10T14:12:37.185Z,12.50
2019-04-10T14:15:05.574Z,12.65
2019-04-10T14:17:33.830Z,13.32
2019-04-10T14:20:02.880Z,13.83
2019-04-10T14:22:31.613Z,12.45
2019-04-10T14:25:00.937Z,13.13
2019-04-10T14:27:30.264Z,12.80
2019-04-10T14:29:58.764Z,11.30
2019-04-10T14:32:37.608Z,11.05
2019-04-10T14:35:08.645Z,11.30
2019-04-10T14:37:37.959Z,10.60
2019-04-10T14:40:08.403Z,12.03
2019-04-10T14:42:36.659Z,11.00
2019-04-10T14:45:06.740Z,10.93
2019-04-10T14:47:35.976Z,10.90
2019-04-10T14:50:05.291Z,11.12
2019-04-10T14:52:34.846Z,11.03
2019-04-10T14:55:04.567Z,11.25
2019-04-10T14:57:32.978Z,12.20
2019-04-10T15:00:01.205Z,12.65
2019-04-10T15:02:30.577Z,12.23
2019-04-10T15:04:59.545Z,11.20
2019-04-10T15:07:28.885Z,10.68
2019-04-10T15:09:57.197Z,12.28
2019-04-10T15:12:25.481Z,11.57
2019-04-10T15:14:58.270Z,11.35
2019-04-10T15:17:27.178Z,11.18
2019-04-10T15:19:56.521Z,10.58
2019-04-10T15:22:25.501Z,10.93
2019-04-10T15:24:53.969Z,11.10
2019-04-10T15:27:22.194Z,9.80
2019-04-10T15:29:50.582Z,10.15
2019-04-10T15:32:20.418Z,9.73
2019-04-10T15:34:48.676Z,10.50
2019-04-10T15:37:17.211Z,11.30
2019-04-10T15:39:47.179Z,10.53
2019-04-10T15:42:24.891Z,11.12
2019-04-10T15:44:57.091Z,9.78
2019-04-10T15:47:25.295Z,9.28
2019-04-10T15:49:53.606Z,9.60
2019-04-10T15:52:24.917Z,9.70
2019-04-10T15:54:55.458Z,9.98
2019-04-10T15:57:25.498Z,10.03
2019-04-10T15:59:54.623Z,10.48
2019-04-10T16:02:23.723Z,10.48
2019-04-10T16:04:57.181Z,10.55
2019-04-10T16:07:27.323Z,10.13
2019-04-10T16:09:57.974Z,11.03
2019-04-10T16:12:27.433Z,10.43
2019-04-10T16:14:56.972Z,11.20
2019-04-10T16:17:39.922Z,9.93
2019-04-10T16:20:22.100Z,8.80
2019-04-10T16:22:54.809Z,10.03
2019-04-10T16:25:25.579Z,9.25
2019-04-10T16:27:53.965Z,10.38
2019-04-10T16:30:26.249Z,9.88
2019-04-10T16:32:54.374Z,9.18
2019-04-10T16:35:32.482Z,9.38
2019-04-10T16:38:00.199Z,9.28
2019-04-10T16:40:29.836Z,8.73
2019-04-10T16:42:59.246Z,9.10
2019-04-10T16:45:28.643Z,9.13
2019-04-10T16:47:56.874Z,8.88
2019-04-10T16:50:25.842Z,9.40
2019-04-10T16:52:54.069Z,10.00
2019-04-10T16:55:22.784Z,9.90
2019-04-10T16:57:52.203Z,9.35
2019-04-10T17:00:22.249Z,9.20
2019-04-10T17:02:50.815Z,8.38
2019-04-10T17:05:19.029Z,8.93
2019-04-10T17:07:47.527Z,8.08
2019-04-10T17:10:22.346Z,8.78
2019-04-10T17:12:46.849Z,8.25
2019-04-10T17:15:15.722Z,8.65
2019-04-10T17:17:44.445Z,8.68
2019-04-10T17:20:14.014Z,8.98
2019-04-10T17:22:45.988Z,9.40
2019-04-10T17:25:14.347Z,9.28
2019-04-10T17:27:43.564Z,8.20
2019-04-10T17:30:15.706Z,7.90
2019-04-10T17:32:44.665Z,8.35
2019-04-10T17:35:13.688Z,8.70
2019-04-10T17:37:42.250Z,8.35
2019-04-10T17:40:25.448Z,7.75
2019-04-10T17:42:42.265Z,8.08
2019-04-10T17:45:10.470Z,7.90
2019-04-10T17:47:38.920Z,8.15
2019-04-10T17:50:08.778Z,8.15
2019-04-10T17:52:38.110Z,7.80
2019-04-10T17:55:07.407Z,8.48
2019-04-10T17:57:40.211Z,8.08
2019-04-10T18:00:11.077Z,8.03
2019-04-10T18:02:39.322Z,7.15
2019-04-10T18:05:08.513Z,7.40
2019-04-10T18:07:40.547Z,7.33
2019-04-10T18:10:09.004Z,8.20
2019-04-10T18:12:38.373Z,8.30
2019-04-10T18:15:06.640Z,7.70
2019-04-10T18:17:35.416Z,8.30
2019-04-10T18:20:04.890Z,8.88
2019-04-10T18:22:34.330Z,8.75
2019-04-10T18:25:05.450Z,8.10
2019-04-10T18:27:33.733Z,8.63
2019-04-10T18:30:01.962Z,8.75
2019-04-10T18:32:30.172Z,8.03
2019-04-10T18:34:58.392Z,8.93
2019-04-10T18:37:28.579Z,8.15
2019-04-10T18:39:57.033Z,8.43
2019-04-10T18:42:25.331Z,6.75
2019-04-10T18:44:53.558Z,8.78
2019-04-10T18:47:21.871Z,8.55
2019-04-10T18:49:53.982Z,8.40
2019-04-10T18:52:23.361Z,7.80
2019-04-10T18:54:52.019Z,7.97
2019-04-10T18:57:20.344Z,8.23
2019-04-10T19:00:02.082Z,7.53
2019-04-10T19:02:32.829Z,7.80
2019-04-10T19:05:05.697Z,6.95
2019-04-10T19:07:34.345Z,7.72
2019-04-10T19:10:04.309Z,8.70
2019-04-10T19:12:32.827Z,8.13
2019-04-10T19:15:01.069Z,8.23
2019-04-10T19:17:29.365Z,8.73
2019-04-10T19:19:57.579Z,7.87
2019-04-10T19:22:26.730Z,7.45
2019-04-10T19:24:54.928Z,8.18
2019-04-10T19:27:25.052Z,8.03
2019-04-10T19:29:53.048Z,7.37
2019-04-10T19:32:22.922Z,7.62
2019-04-10T19:34:51.803Z,7.35
2019-04-10T19:37:20.642Z,7.83
2019-04-10T19:39:48.850Z,7.75
2019-04-10T19:42:17.437Z,7.47
2019-04-10T19:44:45.677Z,7.58
2019-04-10T19:47:14.550Z,7.53
2019-04-10T19:49:42.895Z,7.15
2019-04-10T19:52:11.979Z,7.12
2019-04-10T19:54:40.882Z,7.85
2019-04-10T19:57:09.063Z,7.15
2019-04-10T19:59:37.287Z,7.00
2019-04-10T20:02:06.649Z,7.70
2019-04-10T20:04:34.958Z,6.90
2019-04-10T20:07:03.161Z,7.33
2019-04-10T20:09:32.569Z,6.90
2019-04-10T20:12:00.957Z,7.08
2019-04-10T20:14:29.150Z,7.12
2019-04-10T20:16:57.657Z,7.22
2019-04-10T20:19:26.637Z,7.00
2019-04-10T20:21:54.855Z,6.97
2019-04-10T20:24:23.060Z,7.33
2019-04-10T20:26:51.813Z,6.58
2019-04-10T20:29:21.154Z,7.22
2019-04-10T20:31:50.640Z,6.50
2019-04-10T20:34:19.133Z,7.35
2019-04-10T20:36:47.437Z,6.67
2019-04-10T20:39:16.876Z,6.45
2019-04-10T20:41:52.001Z,6.50
2019-04-10T20:44:15.166Z,6.83
2019-04-10T20:46:46.637Z,7.37
2019-04-10T20:49:14.771Z,6.67
2019-04-10T20:51:43.938Z,6.90
2019-04-10T20:54:12.771Z,6.30
2019-04-10T20:56:41.112Z,6.20
2019-04-10T20:59:09.962Z,6.85
2019-04-10T21:01:39.287Z,7.10
2019-04-10T21:04:07.577Z,6.20
2019-04-10T21:06:36.418Z,6.05
2019-04-10T21:09:07.501Z,6.35
2019-04-10T21:11:35.699Z,6.45
2019-04-10T21:14:05.230Z,6.70
2019-04-10T21:16:33.677Z,6.72
2019-04-10T21:19:02.372Z,6.30
2019-04-10T21:21:30.784Z,7.40
2019-04-10T21:23:58.949Z,6.78
2019-04-10T21:26:28.213Z,6.37
2019-04-10T21:28:56.760Z,6.70
2019-04-10T21:31:42.826Z,6.75
2019-04-10T21:34:21.865Z,7.03
2019-04-10T21:36:50.983Z,6.28
2019-04-10T21:39:22.887Z,6.33
2019-04-10T21:41:51.088Z,6.05
2019-04-10T21:44:20.391Z,6.53
2019-04-10T21:46:50.416Z,6.12
2019-04-10T21:49:19.639Z,7.42
2019-04-10T21:51:48.093Z,6.33
2019-04-10T21:54:16.371Z,6.28
2019-04-10T21:56:45.116Z,6.25
2019-04-10T21:59:16.021Z,6.45
2019-04-10T22:01:43.360Z,6.17
2019-04-10T22:04:11.642Z,6.08
2019-04-10T22:06:41.485Z,6.42
2019-04-10T22:09:28.594Z,6.58
2019-04-10T22:11:58.468Z,5.95
2019-04-10T22:14:26.636Z,6.75
2019-04-10T22:16:54.841Z,5.40
2019-04-10T22:19:24.446Z,6.30
2019-04-10T22:21:53.667Z,6.70
2019-04-10T22:24:21.954Z,6.45
2019-04-10T22:26:50.193Z,6.08
2019-04-10T22:29:19.503Z,6.33
2019-04-10T22:31:47.790Z,5.70
2019-04-10T22:34:17.071Z,6.12
2019-04-10T22:36:45.372Z,6.72
2019-04-10T22:39:15.226Z,5.83
2019-04-10T22:41:43.500Z,5.92
2019-04-10T22:44:11.830Z,5.97
2019-04-10T22:46:40.466Z,5.92
2019-04-10T22:49:08.685Z,6.70
2019-04-10T22:51:37.698Z,5.80
2019-04-10T22:54:06.119Z,6.15
2019-04-10T22:56:34.405Z,6.15
2019-04-10T22:59:03.855Z,5.97
2019-04-10T23:01:33.315Z,6.22
2019-04-10T23:04:01.774Z,6.00
2019-04-10T23:06:29.974Z,6.42
2019-04-10T23:08:58.171Z,5.20
2019-04-10T23:11:33.505Z,6.60
2019-04-10T23:13:56.420Z,6.47
2019-04-10T23:16:24.613Z,6.05
2019-04-10T23:18:53.864Z,5.97
2019-04-10T23:21:22.821Z,6.33
2019-04-10T23:23:51.632Z,6.47
2019-04-10T23:26:20.765Z,5.92
2019-04-10T23:28:49.792Z,5.35
2019-04-10T23:31:17.999Z,6.10
2019-04-10T23:33:46.208Z,6.12
2019-04-10T23:36:14.421Z,6.22
2019-04-10T23:38:43.709Z,6.30
2019-04-10T23:41:12.012Z,6.45
2019-04-10T23:43:40.203Z,5.90
2019-04-10T23:46:08.445Z,6.40
2019-04-10T23:48:37.107Z,5.42
2019-04-10T23:51:05.317Z,6.45
2019-04-10T23:53:33.531Z,6.17
2019-04-10T23:56:02.145Z,6.72
2019-04-10T23:58:30.430Z,5.80
